Aérodrome :
LOGIN :

S'inscrire | Disclaimer

   EN    FR    IT 

 










Légende :    VFR   VFR Marginal   IFR   IFR Intensif   IFR Très Intensif
Visi : 
Plafond : 
>= 8 km
>= 3000ft
5 à 8 km
1000 à 3000 ft
1500m à 5 km
500 à 1000 ft
800 à 1500m
200 à 500 ft
< 800m
< 200 ft
Symboles :   Orages  Brouillard  Fortes neiges  Fortes précipitations  Vent > 20 kt
SIGMETs :   Divers  Orages  Givrage  Turbulence  Onde Orograph.  Cendres Volcan.







- Altitude de l'aérodrome : 56 ft
- Code IATA : BZR
- Voir les cartes d'approche


LFMU - Beziers / Vias

DERNIER METAR :
  • 260530Z AUTO 25002KT CAVOK 11/10 Q1007 NOSIG

METARs EXPIRÉS :
  • 260500Z AUTO 29004KT 9999 FEW038 OVC110 11/10 Q1007 TEMPO 3000 RA BR BKN008 SCT030TCU
  • 260430Z AUTO 28007KT CAVOK 11/09 Q1007 TEMPO 3000 RA BR BKN008 SCT030TCU
  • 260400Z AUTO 29007KT CAVOK 11/09 Q1006 TEMPO 3000 RA BR BKN008 SCT030TCU
  • 260330Z AUTO 28006KT 9999 -RA ///TCU 11/10 Q1006 TEMPO 3000 RA BR BKN008 SCT030TCU
  • 260300Z AUTO 28007KT 9999 ///TCU 11/10 Q1006 TEMPO 3000 RA BR BKN008 SCT030TCU

TAF TAF LFMU
Valide du 26 à 03h jusqu'au 27 à 03h UTC


260200Z 2603/2703 30010KT 9999 BKN020 BKN040
TEMPO 2603/2606 3000 RA BR BKN008 SCT030TCU
BECMG 2610/2612 NSC
ATIS : +33 4 67 90 88 88
Pas de NOTAMs connus pour ce terrain.



MET'MAP, la Météo Aéronautique d'un coup d'oeil ! - Copyright ORBIFLY Décembre 2007 - Disclaimer

ORBIFLY MET'MAP TEAM :

Programmation & Développement : Alexandra Zaïnal
Conception & Développement : Baudouin d'Aumeries
Co-Programmation & Développement : Marc-Olivier Méhu
Soutien technique & logistique : Manuel Goepfert

Contact : metmap@orbifly.com




SOURCES & CREDITS :

   NOAA